sensor_id;sensor_type;location;lat;lon;timestamp;temperature;humidity
19192;DHT22;9728;48.194;16.346;2023-07-20T00:04:54;31.40;47.40
19192;DHT22;9728;48.194;16.346;2023-07-20T00:09:58;31.50;47.50
19192;DHT22;9728;48.194;16.346;2023-07-20T00:15:02;31.40;47.20
19192;DHT22;9728;48.194;16.346;2023-07-20T00:20:08;31.50;47.20
19192;DHT22;9728;48.194;16.346;2023-07-20T00:25:12;31.50;47.40
19192;DHT22;9728;48.194;16.346;2023-07-20T00:30:15;31.50;47.30
19192;DHT22;9728;48.194;16.346;2023-07-20T00:35:20;31.50;47.20
19192;DHT22;9728;48.194;16.346;2023-07-20T00:40:25;31.50;47.30
19192;DHT22;9728;48.194;16.346;2023-07-20T00:45:29;31.50;47.10
19192;DHT22;9728;48.194;16.346;2023-07-20T00:50:35;31.50;47.20
19192;DHT22;9728;48.194;16.346;2023-07-20T00:55:38;31.50;47.30
19192;DHT22;9728;48.194;16.346;2023-07-20T01:00:42;31.50;47.30
19192;DHT22;9728;48.194;16.346;2023-07-20T01:05:51;31.50;47.50
19192;DHT22;9728;48.194;16.346;2023-07-20T01:11:01;31.40;47.70
19192;DHT22;9728;48.194;16.346;2023-07-20T01:16:06;31.40;47.80
19192;DHT22;9728;48.194;16.346;2023-07-20T01:21:16;31.40;47.80
19192;DHT22;9728;48.194;16.346;2023-07-20T01:26:34;31.40;48.00
19192;DHT22;9728;48.194;16.346;2023-07-20T01:31:41;31.40;48.00
19192;DHT22;9728;48.194;16.346;2023-07-20T01:36:46;31.40;48.00
19192;DHT22;9728;48.194;16.346;2023-07-20T01:41:52;31.40;47.80
19192;DHT22;9728;48.194;16.346;2023-07-20T01:46:57;31.40;47.90
19192;DHT22;9728;48.194;16.346;2023-07-20T01:52:00;31.40;47.80
19192;DHT22;9728;48.194;16.346;2023-07-20T01:57:05;31.40;47.90
19192;DHT22;9728;48.194;16.346;2023-07-20T02:02:10;31.30;48.00
19192;DHT22;9728;48.194;16.346;2023-07-20T02:07:13;31.30;48.30
19192;DHT22;9728;48.194;16.346;2023-07-20T02:12:17;31.30;48.20
19192;DHT22;9728;48.194;16.346;2023-07-20T02:17:23;31.30;48.30
19192;DHT22;9728;48.194;16.346;2023-07-20T02:22:26;31.30;48.50
19192;DHT22;9728;48.194;16.346;2023-07-20T02:27:30;31.30;48.50
19192;DHT22;9728;48.194;16.346;2023-07-20T02:32:35;31.30;48.50
19192;DHT22;9728;48.194;16.346;2023-07-20T02:37:38;31.30;48.70
19192;DHT22;9728;48.194;16.346;2023-07-20T02:42:42;31.30;48.60
19192;DHT22;9728;48.194;16.346;2023-07-20T02:47:47;31.30;48.60
19192;DHT22;9728;48.194;16.346;2023-07-20T02:52:50;31.30;48.70
19192;DHT22;9728;48.194;16.346;2023-07-20T02:57:54;31.30;48.60
19192;DHT22;9728;48.194;16.346;2023-07-20T03:02:59;31.30;48.70
19192;DHT22;9728;48.194;16.346;2023-07-20T03:08:03;31.30;48.80
19192;DHT22;9728;48.194;16.346;2023-07-20T03:13:08;31.30;48.70
19192;DHT22;9728;48.194;16.346;2023-07-20T03:18:13;31.30;49.50
19192;DHT22;9728;48.194;16.346;2023-07-20T03:23:16;31.20;48.80
19192;DHT22;9728;48.194;16.346;2023-07-20T03:28:20;31.20;48.70
19192;DHT22;9728;48.194;16.346;2023-07-20T03:33:26;31.30;48.70
19192;DHT22;9728;48.194;16.346;2023-07-20T03:38:33;31.30;48.90
19192;DHT22;9728;48.194;16.346;2023-07-20T03:43:36;31.20;48.70
19192;DHT22;9728;48.194;16.346;2023-07-20T03:48:41;31.20;48.70
19192;DHT22;9728;48.194;16.346;2023-07-20T03:53:44;31.20;48.90
19192;DHT22;9728;48.194;16.346;2023-07-20T03:58:48;31.20;48.90
19192;DHT22;9728;48.194;16.346;2023-07-20T04:03:53;31.20;48.90
19192;DHT22;9728;48.194;16.346;2023-07-20T04:08:56;31.10;48.90
19192;DHT22;9728;48.194;16.346;2023-07-20T04:14:00;31.10;49.00
19192;DHT22;9728;48.194;16.346;2023-07-20T04:19:05;31.10;49.10
19192;DHT22;9728;48.194;16.346;2023-07-20T04:24:09;31.10;49.10
19192;DHT22;9728;48.194;16.346;2023-07-20T04:29:13;31.10;49.10
19192;DHT22;9728;48.194;16.346;2023-07-20T04:34:19;31.10;49.20
19192;DHT22;9728;48.194;16.346;2023-07-20T04:39:23;31.10;49.30
19192;DHT22;9728;48.194;16.346;2023-07-20T04:44:37;31.10;49.30
19192;DHT22;9728;48.194;16.346;2023-07-20T04:49:43;31.10;49.40
19192;DHT22;9728;48.194;16.346;2023-07-20T04:54:46;31.10;49.60
19192;DHT22;9728;48.194;16.346;2023-07-20T04:59:49;31.10;49.70
19192;DHT22;9728;48.194;16.346;2023-07-20T05:04:55;31.10;50.00
19192;DHT22;9728;48.194;16.346;2023-07-20T05:09:58;31.10;50.10
19192;DHT22;9728;48.194;16.346;2023-07-20T05:15:04;31.10;50.10
19192;DHT22;9728;48.194;16.346;2023-07-20T05:20:10;31.20;50.30
19192;DHT22;9728;48.194;16.346;2023-07-20T05:25:15;31.20;50.40
19192;DHT22;9728;48.194;16.346;2023-07-20T05:30:20;31.20;50.20
19192;DHT22;9728;48.194;16.346;2023-07-20T05:35:25;31.30;50.30
19192;DHT22;9728;48.194;16.346;2023-07-20T05:40:29;31.40;50.40
19192;DHT22;9728;48.194;16.346;2023-07-20T05:45:32;31.40;50.30
19192;DHT22;9728;48.194;16.346;2023-07-20T05:50:37;31.40;50.30
19192;DHT22;9728;48.194;16.346;2023-07-20T05:55:41;31.50;50.50
19192;DHT22;9728;48.194;16.346;2023-07-20T06:00:47;31.50;50.30
19192;DHT22;9728;48.194;16.346;2023-07-20T06:05:52;31.50;51.00
19192;DHT22;9728;48.194;16.346;2023-07-20T06:10:56;31.40;51.70
19192;DHT22;9728;48.194;16.346;2023-07-20T06:15:59;31.40;51.50
19192;DHT22;9728;48.194;16.346;2023-07-20T06:21:05;31.50;51.40
19192;DHT22;9728;48.194;16.346;2023-07-20T06:26:08;31.50;51.00
19192;DHT22;9728;48.194;16.346;2023-07-20T06:31:12;31.60;50.70
19192;DHT22;9728;48.194;16.346;2023-07-20T06:36:18;31.60;50.40
19192;DHT22;9728;48.194;16.346;2023-07-20T06:41:21;31.60;50.20
19192;DHT22;9728;48.194;16.346;2023-07-20T06:46:28;31.60;50.00
19192;DHT22;9728;48.194;16.346;2023-07-20T06:51:33;31.60;50.00
19192;DHT22;9728;48.194;16.346;2023-07-20T06:56:36;31.60;50.10
19192;DHT22;9728;48.194;16.346;2023-07-20T07:01:47;31.50;50.70
19192;DHT22;9728;48.194;16.346;2023-07-20T07:06:52;31.50;50.10
19192;DHT22;9728;48.194;16.346;2023-07-20T07:11:55;31.50;50.00
19192;DHT22;9728;48.194;16.346;2023-07-20T07:16:59;31.50;50.00
19192;DHT22;9728;48.194;16.346;2023-07-20T07:22:07;31.50;50.00
19192;DHT22;9728;48.194;16.346;2023-07-20T07:27:11;31.50;50.00
19192;DHT22;9728;48.194;16.346;2023-07-20T07:32:15;31.50;50.10
19192;DHT22;9728;48.194;16.346;2023-07-20T07:37:20;31.50;50.00
19192;DHT22;9728;48.194;16.346;2023-07-20T07:42:23;31.50;50.00
19192;DHT22;9728;48.194;16.346;2023-07-20T07:47:27;31.50;50.00
19192;DHT22;9728;48.194;16.346;2023-07-20T07:52:33;31.60;50.20
19192;DHT22;9728;48.194;16.346;2023-07-20T07:57:36;31.60;50.30
19192;DHT22;9728;48.194;16.346;2023-07-20T08:02:41;31.60;50.20
19192;DHT22;9728;48.194;16.346;2023-07-20T08:07:46;31.70;50.40
19192;DHT22;9728;48.194;16.346;2023-07-20T08:12:50;31.70;50.40
19192;DHT22;9728;48.194;16.346;2023-07-20T08:17:53;31.80;50.40
19192;DHT22;9728;48.194;16.346;2023-07-20T08:22:58;31.90;50.40
19192;DHT22;9728;48.194;16.346;2023-07-20T08:28:02;32.00;50.40
19192;DHT22;9728;48.194;16.346;2023-07-20T08:33:06;32.10;50.20
19192;DHT22;9728;48.194;16.346;2023-07-20T08:38:11;32.20;49.90
19192;DHT22;9728;48.194;16.346;2023-07-20T08:43:15;32.30;49.80
19192;DHT22;9728;48.194;16.346;2023-07-20T08:48:20;32.30;49.60
19192;DHT22;9728;48.194;16.346;2023-07-20T08:53:25;32.30;49.40
19192;DHT22;9728;48.194;16.346;2023-07-20T08:58:30;32.40;49.40
19192;DHT22;9728;48.194;16.346;2023-07-20T09:03:34;32.40;49.30
19192;DHT22;9728;48.194;16.346;2023-07-20T09:08:42;32.40;49.20
19192;DHT22;9728;48.194;16.346;2023-07-20T09:13:46;32.40;49.50
19192;DHT22;9728;48.194;16.346;2023-07-20T09:18:53;32.40;49.20
19192;DHT22;9728;48.194;16.346;2023-07-20T09:23:57;32.50;49.30
19192;DHT22;9728;48.194;16.346;2023-07-20T09:29:01;32.50;49.10
19192;DHT22;9728;48.194;16.346;2023-07-20T09:34:10;32.60;49.00
19192;DHT22;9728;48.194;16.346;2023-07-20T09:39:42;32.60;48.90
19192;DHT22;9728;48.194;16.346;2023-07-20T09:45:08;32.60;48.90
19192;DHT22;9728;48.194;16.346;2023-07-20T09:50:11;32.60;48.90
19192;DHT22;9728;48.194;16.346;2023-07-20T09:55:19;32.60;48.50
19192;DHT22;9728;48.194;16.346;2023-07-20T10:00:26;32.60;48.40
19192;DHT22;9728;48.194;16.346;2023-07-20T10:05:33;32.60;48.50
19192;DHT22;9728;48.194;16.346;2023-07-20T10:10:41;32.60;48.30
19192;DHT22;9728;48.194;16.346;2023-07-20T10:15:47;32.50;48.30
19192;DHT22;9728;48.194;16.346;2023-07-20T10:20:54;32.60;48.50
19192;DHT22;9728;48.194;16.346;2023-07-20T10:26:03;32.60;48.30
19192;DHT22;9728;48.194;16.346;2023-07-20T10:31:07;32.60;48.40
19192;DHT22;9728;48.194;16.346;2023-07-20T10:36:11;32.60;48.40
19192;DHT22;9728;48.194;16.346;2023-07-20T10:41:21;32.80;48.40
19192;DHT22;9728;48.194;16.346;2023-07-20T10:46:50;32.90;48.20
19192;DHT22;9728;48.194;16.346;2023-07-20T10:52:05;33.10;48.20
19192;DHT22;9728;48.194;16.346;2023-07-20T10:57:24;33.40;48.20
19192;DHT22;9728;48.194;16.346;2023-07-20T11:02:28;33.60;47.70
19192;DHT22;9728;48.194;16.346;2023-07-20T11:07:44;34.00;47.60
19192;DHT22;9728;48.194;16.346;2023-07-20T11:13:19;34.20;47.40
19192;DHT22;9728;48.194;16.346;2023-07-20T11:18:25;34.50;46.10
19192;DHT22;9728;48.194;16.346;2023-07-20T11:23:29;34.70;46.30
19192;DHT22;9728;48.194;16.346;2023-07-20T11:28:36;34.90;46.10
19192;DHT22;9728;48.194;16.346;2023-07-20T11:33:39;35.10;45.60
19192;DHT22;9728;48.194;16.346;2023-07-20T11:38:43;35.40;45.60
19192;DHT22;9728;48.194;16.346;2023-07-20T11:43:48;35.50;45.30
19192;DHT22;9728;48.194;16.346;2023-07-20T11:48:57;35.80;44.90
19192;DHT22;9728;48.194;16.346;2023-07-20T11:54:02;36.00;43.90
19192;DHT22;9728;48.194;16.346;2023-07-20T11:59:08;36.20;44.30
19192;DHT22;9728;48.194;16.346;2023-07-20T12:04:12;36.30;43.80
19192;DHT22;9728;48.194;16.346;2023-07-20T12:09:17;36.50;43.50
19192;DHT22;9728;48.194;16.346;2023-07-20T12:14:25;36.60;43.30
19192;DHT22;9728;48.194;16.346;2023-07-20T12:19:29;36.80;42.30
19192;DHT22;9728;48.194;16.346;2023-07-20T12:24:32;36.80;42.50
19192;DHT22;9728;48.194;16.346;2023-07-20T12:29:37;36.90;42.40
19192;DHT22;9728;48.194;16.346;2023-07-20T12:34:40;37.00;42.20
19192;DHT22;9728;48.194;16.346;2023-07-20T12:39:44;37.00;42.00
19192;DHT22;9728;48.194;16.346;2023-07-20T12:44:50;37.20;41.80
19192;DHT22;9728;48.194;16.346;2023-07-20T12:49:54;37.20;42.00
19192;DHT22;9728;48.194;16.346;2023-07-20T12:54:58;37.30;41.40
19192;DHT22;9728;48.194;16.346;2023-07-20T13:00:06;37.30;41.20
19192;DHT22;9728;48.194;16.346;2023-07-20T13:05:11;37.40;40.50
19192;DHT22;9728;48.194;16.346;2023-07-20T13:10:14;37.30;40.40
19192;DHT22;9728;48.194;16.346;2023-07-20T13:15:19;37.40;40.50
19192;DHT22;9728;48.194;16.346;2023-07-20T13:20:23;37.50;40.10
19192;DHT22;9728;48.194;16.346;2023-07-20T13:25:26;37.50;40.20
19192;DHT22;9728;48.194;16.346;2023-07-20T13:30:32;37.60;39.90
19192;DHT22;9728;48.194;16.346;2023-07-20T13:35:35;37.70;39.60
19192;DHT22;9728;48.194;16.346;2023-07-20T13:40:41;37.70;39.50
19192;DHT22;9728;48.194;16.346;2023-07-20T13:45:47;37.80;39.40
19192;DHT22;9728;48.194;16.346;2023-07-20T13:50:50;37.90;39.20
19192;DHT22;9728;48.194;16.346;2023-07-20T13:55:58;37.90;39.20
19192;DHT22;9728;48.194;16.346;2023-07-20T14:01:06;37.90;38.90
19192;DHT22;9728;48.194;16.346;2023-07-20T14:06:09;38.00;38.60
19192;DHT22;9728;48.194;16.346;2023-07-20T14:11:17;38.10;38.60
19192;DHT22;9728;48.194;16.346;2023-07-20T14:16:25;38.10;38.30
19192;DHT22;9728;48.194;16.346;2023-07-20T14:21:29;38.20;38.00
19192;DHT22;9728;48.194;16.346;2023-07-20T14:26:33;38.20;38.10
19192;DHT22;9728;48.194;16.346;2023-07-20T14:31:39;38.30;37.90
19192;DHT22;9728;48.194;16.346;2023-07-20T14:36:42;38.20;38.00
19192;DHT22;9728;48.194;16.346;2023-07-20T14:41:46;38.30;38.20
19192;DHT22;9728;48.194;16.346;2023-07-20T14:46:50;38.30;37.90
19192;DHT22;9728;48.194;16.346;2023-07-20T14:52:12;38.40;37.80
19192;DHT22;9728;48.194;16.346;2023-07-20T14:57:18;38.30;37.40
19192;DHT22;9728;48.194;16.346;2023-07-20T15:02:22;38.30;37.30
19192;DHT22;9728;48.194;16.346;2023-07-20T15:07:27;38.20;37.20
19192;DHT22;9728;48.194;16.346;2023-07-20T15:12:30;38.10;37.20
19192;DHT22;9728;48.194;16.346;2023-07-20T15:17:35;38.00;37.20
19192;DHT22;9728;48.194;16.346;2023-07-20T15:22:40;37.90;37.00
19192;DHT22;9728;48.194;16.346;2023-07-20T15:27:43;37.80;37.10
19192;DHT22;9728;48.194;16.346;2023-07-20T15:32:53;37.60;37.00
19192;DHT22;9728;48.194;16.346;2023-07-20T15:38:00;37.40;37.00
19192;DHT22;9728;48.194;16.346;2023-07-20T15:43:04;37.20;37.20
19192;DHT22;9728;48.194;16.346;2023-07-20T15:48:24;37.00;37.30
19192;DHT22;9728;48.194;16.346;2023-07-20T15:53:27;36.80;37.30
19192;DHT22;9728;48.194;16.346;2023-07-20T15:58:31;36.70;37.50
19192;DHT22;9728;48.194;16.346;2023-07-20T16:03:36;36.50;37.50
19192;DHT22;9728;48.194;16.346;2023-07-20T16:08:39;36.40;37.60
19192;DHT22;9728;48.194;16.346;2023-07-20T16:13:43;36.20;37.70
19192;DHT22;9728;48.194;16.346;2023-07-20T16:18:50;36.10;37.70
19192;DHT22;9728;48.194;16.346;2023-07-20T16:23:55;36.00;37.80
19192;DHT22;9728;48.194;16.346;2023-07-20T16:28:59;35.80;37.90
19192;DHT22;9728;48.194;16.346;2023-07-20T16:34:08;35.70;38.00
19192;DHT22;9728;48.194;16.346;2023-07-20T16:39:11;35.60;38.10
19192;DHT22;9728;48.194;16.346;2023-07-20T16:44:17;35.40;38.20
19192;DHT22;9728;48.194;16.346;2023-07-20T16:49:22;35.30;38.30
19192;DHT22;9728;48.194;16.346;2023-07-20T16:54:27;35.20;38.30
19192;DHT22;9728;48.194;16.346;2023-07-20T16:59:31;35.10;38.40
19192;DHT22;9728;48.194;16.346;2023-07-20T17:04:36;35.00;38.50
19192;DHT22;9728;48.194;16.346;2023-07-20T17:09:40;34.90;38.60
19192;DHT22;9728;48.194;16.346;2023-07-20T17:14:43;34.80;38.70
19192;DHT22;9728;48.194;16.346;2023-07-20T17:19:48;34.70;38.80
19192;DHT22;9728;48.194;16.346;2023-07-20T17:25:12;34.60;38.80
19192;DHT22;9728;48.194;16.346;2023-07-20T17:30:18;34.50;38.90
19192;DHT22;9728;48.194;16.346;2023-07-20T17:35:23;34.40;39.00
19192;DHT22;9728;48.194;16.346;2023-07-20T17:40:28;34.30;39.10
19192;DHT22;9728;48.194;16.346;2023-07-20T17:45:35;34.30;39.30
19192;DHT22;9728;48.194;16.346;2023-07-20T17:50:40;34.20;39.30
19192;DHT22;9728;48.194;16.346;2023-07-20T17:55:45;34.10;39.30
19192;DHT22;9728;48.194;16.346;2023-07-20T18:00:49;34.10;39.40
19192;DHT22;9728;48.194;16.346;2023-07-20T18:06:04;34.00;39.50
19192;DHT22;9728;48.194;16.346;2023-07-20T18:11:08;33.90;39.50
19192;DHT22;9728;48.194;16.346;2023-07-20T18:16:14;33.80;39.60
19192;DHT22;9728;48.194;16.346;2023-07-20T18:21:19;33.80;39.70
19192;DHT22;9728;48.194;16.346;2023-07-20T18:26:24;33.70;39.70
19192;DHT22;9728;48.194;16.346;2023-07-20T18:31:29;33.70;39.90
19192;DHT22;9728;48.194;16.346;2023-07-20T18:36:35;33.70;39.90
19192;DHT22;9728;48.194;16.346;2023-07-20T18:41:39;33.50;40.00
19192;DHT22;9728;48.194;16.346;2023-07-20T18:46:43;33.50;40.00
19192;DHT22;9728;48.194;16.346;2023-07-20T18:51:49;33.50;40.10
19192;DHT22;9728;48.194;16.346;2023-07-20T18:56:53;33.40;40.10
19192;DHT22;9728;48.194;16.346;2023-07-20T19:01:58;33.40;40.20
19192;DHT22;9728;48.194;16.346;2023-07-20T19:07:07;33.30;40.30
19192;DHT22;9728;48.194;16.346;2023-07-20T19:12:10;33.20;40.40
19192;DHT22;9728;48.194;16.346;2023-07-20T19:17:15;33.20;40.50
19192;DHT22;9728;48.194;16.346;2023-07-20T19:22:21;33.10;40.50
19192;DHT22;9728;48.194;16.346;2023-07-20T19:27:26;33.10;40.60
19192;DHT22;9728;48.194;16.346;2023-07-20T19:32:32;33.00;40.70
19192;DHT22;9728;48.194;16.346;2023-07-20T19:37:41;32.90;40.70
19192;DHT22;9728;48.194;16.346;2023-07-20T19:42:47;32.90;40.90
19192;DHT22;9728;48.194;16.346;2023-07-20T19:47:52;32.80;40.90
19192;DHT22;9728;48.194;16.346;2023-07-20T19:52:57;32.70;40.90
19192;DHT22;9728;48.194;16.346;2023-07-20T19:58:05;32.60;41.00
19192;DHT22;9728;48.194;16.346;2023-07-20T20:03:09;32.60;41.10
19192;DHT22;9728;48.194;16.346;2023-07-20T20:08:21;32.50;41.00
19192;DHT22;9728;48.194;16.346;2023-07-20T20:13:28;32.50;41.20
19192;DHT22;9728;48.194;16.346;2023-07-20T20:18:35;32.50;41.30
19192;DHT22;9728;48.194;16.346;2023-07-20T20:23:46;32.40;41.40
19192;DHT22;9728;48.194;16.346;2023-07-20T20:28:53;32.30;41.40
19192;DHT22;9728;48.194;16.346;2023-07-20T20:33:57;32.30;41.50
19192;DHT22;9728;48.194;16.346;2023-07-20T20:39:05;32.30;41.60
19192;DHT22;9728;48.194;16.346;2023-07-20T20:44:09;32.20;41.70
19192;DHT22;9728;48.194;16.346;2023-07-20T20:49:17;32.10;41.70
19192;DHT22;9728;48.194;16.346;2023-07-20T20:54:24;32.10;41.80
19192;DHT22;9728;48.194;16.346;2023-07-20T20:59:28;32.00;41.90
19192;DHT22;9728;48.194;16.346;2023-07-20T21:04:33;32.00;42.00
19192;DHT22;9728;48.194;16.346;2023-07-20T21:09:38;31.90;42.10
19192;DHT22;9728;48.194;16.346;2023-07-20T21:14:42;31.90;42.20
19192;DHT22;9728;48.194;16.346;2023-07-20T21:19:45;31.90;42.20
19192;DHT22;9728;48.194;16.346;2023-07-20T21:24:50;31.80;42.30
19192;DHT22;9728;48.194;16.346;2023-07-20T21:29:54;31.80;42.40
19192;DHT22;9728;48.194;16.346;2023-07-20T21:34:57;31.70;42.50
19192;DHT22;9728;48.194;16.346;2023-07-20T21:40:02;31.60;42.50
19192;DHT22;9728;48.194;16.346;2023-07-20T21:45:08;31.60;42.70
19192;DHT22;9728;48.194;16.346;2023-07-20T21:50:11;31.60;42.80
19192;DHT22;9728;48.194;16.346;2023-07-20T21:55:16;31.50;42.80
19192;DHT22;9728;48.194;16.346;2023-07-20T22:00:20;31.50;43.00
19192;DHT22;9728;48.194;16.346;2023-07-20T22:05:25;31.40;43.00
19192;DHT22;9728;48.194;16.346;2023-07-20T22:10:32;31.40;43.10
19192;DHT22;9728;48.194;16.346;2023-07-20T22:15:36;31.40;43.30
19192;DHT22;9728;48.194;16.346;2023-07-20T22:20:39;31.30;43.30
19192;DHT22;9728;48.194;16.346;2023-07-20T22:25:44;31.20;43.40
19192;DHT22;9728;48.194;16.346;2023-07-20T22:30:48;31.20;43.60
19192;DHT22;9728;48.194;16.346;2023-07-20T22:35:53;31.10;43.50
19192;DHT22;9728;48.194;16.346;2023-07-20T22:40:58;31.10;43.60
19192;DHT22;9728;48.194;16.346;2023-07-20T22:46:02;31.00;43.80
19192;DHT22;9728;48.194;16.346;2023-07-20T22:51:06;31.00;43.80
19192;DHT22;9728;48.194;16.346;2023-07-20T22:56:11;30.90;43.90
19192;DHT22;9728;48.194;16.346;2023-07-20T23:01:15;30.90;44.10
19192;DHT22;9728;48.194;16.346;2023-07-20T23:06:18;30.80;44.10
19192;DHT22;9728;48.194;16.346;2023-07-20T23:11:25;30.70;44.10
19192;DHT22;9728;48.194;16.346;2023-07-20T23:16:29;30.70;44.30
19192;DHT22;9728;48.194;16.346;2023-07-20T23:21:32;30.60;44.30
19192;DHT22;9728;48.194;16.346;2023-07-20T23:26:37;30.60;44.40
19192;DHT22;9728;48.194;16.346;2023-07-20T23:31:41;30.50;44.60
19192;DHT22;9728;48.194;16.346;2023-07-20T23:36:44;30.50;44.60
19192;DHT22;9728;48.194;16.346;2023-07-20T23:41:49;30.40;44.70
19192;DHT22;9728;48.194;16.346;2023-07-20T23:46:52;30.40;44.90
19192;DHT22;9728;48.194;16.346;2023-07-20T23:51:56;30.30;44.80
19192;DHT22;9728;48.194;16.346;2023-07-20T23:57:01;30.30;44.90
